sensor_id;sensor_type;location;lat;lon;timestamp;pressure;altitude;pressure_sealevel;temperature;humidity
18201;BME280;9226;47.858;9.594;2024-01-30T00:01:38;96598.53;;;1.18;78.14
18201;BME280;9226;47.858;9.594;2024-01-30T00:04:03;96602.03;;;1.19;77.76
18201;BME280;9226;47.858;9.594;2024-01-30T00:06:29;96602.91;;;1.18;77.76
18201;BME280;9226;47.858;9.594;2024-01-30T00:08:54;96603.97;;;1.09;78.70
18201;BME280;9226;47.858;9.594;2024-01-30T00:11:19;96605.78;;;1.07;78.50
18201;BME280;9226;47.858;9.594;2024-01-30T00:13:46;96603.47;;;0.95;79.49
18201;BME280;9226;47.858;9.594;2024-01-30T00:16:21;96604.38;;;0.94;78.85
18201;BME280;9226;47.858;9.594;2024-01-30T00:18:47;96605.16;;;0.97;78.33
18201;BME280;9226;47.858;9.594;2024-01-30T00:21:13;96608.84;;;0.88;78.97
18201;BME280;9226;47.858;9.594;2024-01-30T00:23:38;96609.75;;;0.87;78.73
18201;BME280;9226;47.858;9.594;2024-01-30T00:26:04;96608.84;;;0.88;78.07
18201;BME280;9226;47.858;9.594;2024-01-30T00:28:30;96617.59;;;0.87;77.92
18201;BME280;9226;47.858;9.594;2024-01-30T00:30:55;96615.91;;;0.85;77.96
18201;BME280;9226;47.858;9.594;2024-01-30T00:33:21;96614.28;;;0.81;78.02
18201;BME280;9226;47.858;9.594;2024-01-30T00:35:47;96610.72;;;0.83;77.13
18201;BME280;9226;47.858;9.594;2024-01-30T00:38:12;96615.19;;;0.78;77.56
18201;BME280;9226;47.858;9.594;2024-01-30T00:40:37;96612.56;;;0.80;77.32
18201;BME280;9226;47.858;9.594;2024-01-30T00:43:03;96604.72;;;0.80;77.10
18201;BME280;9226;47.858;9.594;2024-01-30T00:45:28;96613.69;;;0.68;78.35
18201;BME280;9226;47.858;9.594;2024-01-30T00:47:54;96615.41;;;0.69;77.51
18201;BME280;9226;47.858;9.594;2024-01-30T00:50:19;96613.63;;;0.71;77.52
18201;BME280;9226;47.858;9.594;2024-01-30T00:52:45;96615.75;;;0.53;79.30
18201;BME280;9226;47.858;9.594;2024-01-30T00:55:10;96613.19;;;0.52;77.72
18201;BME280;9226;47.858;9.594;2024-01-30T00:57:36;96613.06;;;0.19;77.39
18201;BME280;9226;47.858;9.594;2024-01-30T01:00:02;96619.63;;;-0.05;77.45
18201;BME280;9226;47.858;9.594;2024-01-30T01:02:28;96613.31;;;-0.37;79.02
18201;BME280;9226;47.858;9.594;2024-01-30T01:04:54;96615.97;;;-0.40;79.46
18201;BME280;9226;47.858;9.594;2024-01-30T01:07:19;96609.88;;;-0.39;79.61
18201;BME280;9226;47.858;9.594;2024-01-30T01:09:45;96614.13;;;-0.35;79.32
18201;BME280;9226;47.858;9.594;2024-01-30T01:12:10;96610.66;;;-0.34;78.94
18201;BME280;9226;47.858;9.594;2024-01-30T01:14:36;96612.53;;;-0.42;79.53
18201;BME280;9226;47.858;9.594;2024-01-30T01:17:01;96614.56;;;-0.57;80.24
18201;BME280;9226;47.858;9.594;2024-01-30T01:19:27;96612.84;;;-0.59;79.48
18201;BME280;9226;47.858;9.594;2024-01-30T01:21:52;96608.44;;;-0.56;78.76
18201;BME280;9226;47.858;9.594;2024-01-30T01:24:18;96612.81;;;-0.58;78.51
18201;BME280;9226;47.858;9.594;2024-01-30T01:26:44;96608.59;;;-0.63;79.77
18201;BME280;9226;47.858;9.594;2024-01-30T01:29:09;96607.72;;;-0.64;79.69
18201;BME280;9226;47.858;9.594;2024-01-30T01:31:37;96616.44;;;-0.65;79.46
18201;BME280;9226;47.858;9.594;2024-01-30T01:34:12;96617.25;;;-0.61;79.40
18201;BME280;9226;47.858;9.594;2024-01-30T01:36:38;96614.75;;;-0.67;79.93
18201;BME280;9226;47.858;9.594;2024-01-30T01:39:04;96616.59;;;-0.73;80.44
18201;BME280;9226;47.858;9.594;2024-01-30T01:41:30;96621.72;;;-0.68;80.27
18201;BME280;9226;47.858;9.594;2024-01-30T01:43:57;96616.50;;;-0.68;80.76
18201;BME280;9226;47.858;9.594;2024-01-30T01:46:22;96610.47;;;-0.71;81.05
18201;BME280;9226;47.858;9.594;2024-01-30T01:48:48;96610.34;;;-0.65;79.75
18201;BME280;9226;47.858;9.594;2024-01-30T01:51:14;96612.16;;;-0.69;79.65
18201;BME280;9226;47.858;9.594;2024-01-30T01:53:40;96610.81;;;-0.90;80.60
18201;BME280;9226;47.858;9.594;2024-01-30T01:56:06;96608.97;;;-0.85;79.92
18201;BME280;9226;47.858;9.594;2024-01-30T01:58:32;96613.44;;;-0.92;80.50
18201;BME280;9226;47.858;9.594;2024-01-30T02:00:58;96616.81;;;-0.86;79.54
18201;BME280;9226;47.858;9.594;2024-01-30T02:03:24;96617.66;;;-0.86;79.99
18201;BME280;9226;47.858;9.594;2024-01-30T02:05:53;96620.19;;;-0.81;79.51
18201;BME280;9226;47.858;9.594;2024-01-30T02:08:19;96619.38;;;-0.83;79.72
18201;BME280;9226;47.858;9.594;2024-01-30T02:10:44;96616.66;;;-0.77;79.09
18201;BME280;9226;47.858;9.594;2024-01-30T02:13:10;96613.25;;;-0.82;79.83
18201;BME280;9226;47.858;9.594;2024-01-30T02:15:35;96617.59;;;-0.81;79.51
18201;BME280;9226;47.858;9.594;2024-01-30T02:18:01;96620.19;;;-0.81;79.97
18201;BME280;9226;47.858;9.594;2024-01-30T02:20:28;96618.41;;;-0.79;79.64
18201;BME280;9226;47.858;9.594;2024-01-30T02:22:55;96614.03;;;-0.76;79.07
18201;BME280;9226;47.858;9.594;2024-01-30T02:25:38;96621.81;;;-0.74;78.66
18201;BME280;9226;47.858;9.594;2024-01-30T02:28:09;96623.19;;;-1.04;81.19
18201;BME280;9226;47.858;9.594;2024-01-30T02:30:35;96625.94;;;-1.12;81.25
18201;BME280;9226;47.858;9.594;2024-01-30T02:33:00;96619.75;;;-1.06;80.15
18201;BME280;9226;47.858;9.594;2024-01-30T02:35:26;96623.28;;;-1.09;80.44
18201;BME280;9226;47.858;9.594;2024-01-30T02:37:51;96624.44;;;-1.29;82.06
18201;BME280;9226;47.858;9.594;2024-01-30T02:40:16;96615.66;;;-1.21;80.75
18201;BME280;9226;47.858;9.594;2024-01-30T02:42:42;96626.00;;;-1.17;80.07
18201;BME280;9226;47.858;9.594;2024-01-30T02:45:09;96615.63;;;-1.18;80.36
18201;BME280;9226;47.858;9.594;2024-01-30T02:47:35;96617.28;;;-1.14;79.91
18201;BME280;9226;47.858;9.594;2024-01-30T02:50:00;96608.56;;;-1.12;79.73
18201;BME280;9226;47.858;9.594;2024-01-30T02:52:25;96612.94;;;-1.14;80.36
18201;BME280;9226;47.858;9.594;2024-01-30T02:54:51;96605.97;;;-1.13;80.88
18201;BME280;9226;47.858;9.594;2024-01-30T02:57:16;96608.47;;;-1.07;80.17
18201;BME280;9226;47.858;9.594;2024-01-30T02:59:42;96606.81;;;-1.11;80.63
18201;BME280;9226;47.858;9.594;2024-01-30T03:02:07;96604.19;;;-1.10;80.91
18201;BME280;9226;47.858;9.594;2024-01-30T03:04:33;96602.44;;;-1.09;81.18
18201;BME280;9226;47.858;9.594;2024-01-30T03:06:58;96606.75;;;-1.08;80.83
18201;BME280;9226;47.858;9.594;2024-01-30T03:09:23;96599.78;;;-1.06;80.31
18201;BME280;9226;47.858;9.594;2024-01-30T03:11:49;96591.19;;;-1.11;81.31
18201;BME280;9226;47.858;9.594;2024-01-30T03:14:14;96593.84;;;-1.14;81.65
18201;BME280;9226;47.858;9.594;2024-01-30T03:16:40;96591.31;;;-1.20;81.44
18201;BME280;9226;47.858;9.594;2024-01-30T03:19:06;96581.72;;;-1.15;81.14
18201;BME280;9226;47.858;9.594;2024-01-30T03:21:34;96589.47;;;-1.12;81.13
18201;BME280;9226;47.858;9.594;2024-01-30T03:24:00;96593.78;;;-1.11;80.70
18201;BME280;9226;47.858;9.594;2024-01-30T03:26:25;96594.69;;;-1.12;80.63
18201;BME280;9226;47.858;9.594;2024-01-30T03:28:51;96587.84;;;-1.19;81.47
18201;BME280;9226;47.858;9.594;2024-01-30T03:31:16;96585.25;;;-1.21;82.05
18201;BME280;9226;47.858;9.594;2024-01-30T03:33:42;96588.72;;;-1.20;81.83
18201;BME280;9226;47.858;9.594;2024-01-30T03:36:08;96594.94;;;-1.28;82.52
18201;BME280;9226;47.858;9.594;2024-01-30T03:38:34;96596.59;;;-1.23;81.92
18201;BME280;9226;47.858;9.594;2024-01-30T03:41:00;96592.31;;;-1.28;82.14
18201;BME280;9226;47.858;9.594;2024-01-30T03:43:26;96594.09;;;-1.30;82.65
18201;BME280;9226;47.858;9.594;2024-01-30T03:45:51;96591.44;;;-1.26;82.38
18201;BME280;9226;47.858;9.594;2024-01-30T03:48:17;96593.94;;;-1.20;81.56
18201;BME280;9226;47.858;9.594;2024-01-30T03:50:42;96586.94;;;-1.17;81.14
18201;BME280;9226;47.858;9.594;2024-01-30T03:53:08;96585.16;;;-1.15;80.60
18201;BME280;9226;47.858;9.594;2024-01-30T03:55:33;96582.00;;;-1.34;81.87
18201;BME280;9226;47.858;9.594;2024-01-30T03:57:58;96582.84;;;-1.32;81.17
18201;BME280;9226;47.858;9.594;2024-01-30T04:00:24;96587.13;;;-1.29;80.65
18201;BME280;9226;47.858;9.594;2024-01-30T04:02:49;96584.75;;;-1.43;82.08
18201;BME280;9226;47.858;9.594;2024-01-30T04:05:16;96587.28;;;-1.38;81.26
18201;BME280;9226;47.858;9.594;2024-01-30T04:07:41;96580.38;;;-1.41;81.17
18201;BME280;9226;47.858;9.594;2024-01-30T04:10:09;96586.47;;;-1.40;81.53
18201;BME280;9226;47.858;9.594;2024-01-30T04:12:35;96590.75;;;-1.39;81.78
18201;BME280;9226;47.858;9.594;2024-01-30T04:15:01;96579.44;;;-1.37;81.46
18201;BME280;9226;47.858;9.594;2024-01-30T04:17:27;96579.41;;;-1.34;80.80
18201;BME280;9226;47.858;9.594;2024-01-30T04:19:54;96584.59;;;-1.34;81.29
18201;BME280;9226;47.858;9.594;2024-01-30T04:22:19;96581.09;;;-1.30;80.77
18201;BME280;9226;47.858;9.594;2024-01-30T04:24:45;96581.13;;;-1.33;81.17
18201;BME280;9226;47.858;9.594;2024-01-30T04:27:10;96581.22;;;-1.39;81.64
18201;BME280;9226;47.858;9.594;2024-01-30T04:29:36;96583.88;;;-1.42;81.27
18201;BME280;9226;47.858;9.594;2024-01-30T04:32:01;96578.66;;;-1.40;81.08
18201;BME280;9226;47.858;9.594;2024-01-30T04:34:27;96584.69;;;-1.40;80.80
18201;BME280;9226;47.858;9.594;2024-01-30T04:36:52;96589.97;;;-1.44;80.85
18201;BME280;9226;47.858;9.594;2024-01-30T04:39:18;96586.53;;;-1.45;80.29
18201;BME280;9226;47.858;9.594;2024-01-30T04:41:43;96584.78;;;-1.46;80.85
18201;BME280;9226;47.858;9.594;2024-01-30T04:44:08;96588.34;;;-1.50;80.92
18201;BME280;9226;47.858;9.594;2024-01-30T04:46:34;96590.13;;;-1.55;81.03
18201;BME280;9226;47.858;9.594;2024-01-30T04:48:59;96588.38;;;-1.52;80.69
18201;BME280;9226;47.858;9.594;2024-01-30T04:51:25;96590.09;;;-1.52;80.71
18201;BME280;9226;47.858;9.594;2024-01-30T04:53:50;96592.59;;;-1.46;80.05
18201;BME280;9226;47.858;9.594;2024-01-30T04:56:16;96591.72;;;-1.43;79.49
18201;BME280;9226;47.858;9.594;2024-01-30T04:58:41;96591.88;;;-1.56;80.41
18201;BME280;9226;47.858;9.594;2024-01-30T05:01:07;96595.31;;;-1.52;79.70
18201;BME280;9226;47.858;9.594;2024-01-30T05:03:33;96597.94;;;-1.55;80.13
18201;BME280;9226;47.858;9.594;2024-01-30T05:06:00;96589.31;;;-1.57;80.30
18201;BME280;9226;47.858;9.594;2024-01-30T05:08:25;96601.44;;;-1.55;80.05
18201;BME280;9226;47.858;9.594;2024-01-30T05:10:51;96595.31;;;-1.54;80.16
18201;BME280;9226;47.858;9.594;2024-01-30T05:13:16;96597.91;;;-1.52;80.16
18201;BME280;9226;47.858;9.594;2024-01-30T05:15:42;96600.50;;;-1.52;80.04
18201;BME280;9226;47.858;9.594;2024-01-30T05:18:07;96602.41;;;-1.64;80.53
18201;BME280;9226;47.858;9.594;2024-01-30T05:20:33;96609.31;;;-1.59;80.34
18201;BME280;9226;47.858;9.594;2024-01-30T05:22:58;96601.44;;;-1.55;79.64
18201;BME280;9226;47.858;9.594;2024-01-30T05:25:23;96607.53;;;-1.57;80.00
18201;BME280;9226;47.858;9.594;2024-01-30T05:27:49;96612.72;;;-1.57;79.78
18201;BME280;9226;47.858;9.594;2024-01-30T05:30:15;96610.19;;;-1.62;80.52
18201;BME280;9226;47.858;9.594;2024-01-30T05:32:41;96615.44;;;-1.65;80.70
18201;BME280;9226;47.858;9.594;2024-01-30T05:35:06;96609.31;;;-1.59;80.25
18201;BME280;9226;47.858;9.594;2024-01-30T05:37:33;96621.63;;;-1.71;81.00
18201;BME280;9226;47.858;9.594;2024-01-30T05:39:58;96618.06;;;-1.67;80.59
18201;BME280;9226;47.858;9.594;2024-01-30T05:42:24;96624.06;;;-1.63;80.07
18201;BME280;9226;47.858;9.594;2024-01-30T05:44:50;96628.41;;;-1.60;79.62
18201;BME280;9226;47.858;9.594;2024-01-30T05:47:15;96627.59;;;-1.64;79.75
18201;BME280;9226;47.858;9.594;2024-01-30T05:49:41;96634.50;;;-1.65;79.48
18201;BME280;9226;47.858;9.594;2024-01-30T05:52:07;96638.03;;;-1.67;79.28
18201;BME280;9226;47.858;9.594;2024-01-30T05:54:32;96633.69;;;-1.67;79.91
18201;BME280;9226;47.858;9.594;2024-01-30T05:56:58;96634.66;;;-1.74;80.73
18201;BME280;9226;47.858;9.594;2024-01-30T05:59:23;96637.22;;;-1.71;80.74
18201;BME280;9226;47.858;9.594;2024-01-30T06:01:48;96633.69;;;-1.68;80.42
18201;BME280;9226;47.858;9.594;2024-01-30T06:04:14;96640.75;;;-1.76;81.20
18201;BME280;9226;47.858;9.594;2024-01-30T06:06:40;96634.63;;;-1.71;81.09
18201;BME280;9226;47.858;9.594;2024-01-30T06:09:06;96633.75;;;-1.73;80.88
18201;BME280;9226;47.858;9.594;2024-01-30T06:11:33;96632.81;;;-1.66;80.16
18201;BME280;9226;47.858;9.594;2024-01-30T06:13:58;96625.03;;;-1.69;80.72
18201;BME280;9226;47.858;9.594;2024-01-30T06:16:24;96631.88;;;-1.61;79.84
18201;BME280;9226;47.858;9.594;2024-01-30T06:18:49;96624.06;;;-1.61;79.64
18201;BME280;9226;47.858;9.594;2024-01-30T06:21:15;96627.50;;;-1.58;79.12
18201;BME280;9226;47.858;9.594;2024-01-30T06:23:40;96624.91;;;-1.59;79.47
18201;BME280;9226;47.858;9.594;2024-01-30T06:26:09;96627.53;;;-1.61;79.71
18201;BME280;9226;47.858;9.594;2024-01-30T06:28:34;96622.47;;;-1.72;80.26
18201;BME280;9226;47.858;9.594;2024-01-30T06:31:01;96628.53;;;-1.70;80.16
18201;BME280;9226;47.858;9.594;2024-01-30T06:33:26;96623.34;;;-1.71;80.20
18201;BME280;9226;47.858;9.594;2024-01-30T06:35:52;96631.13;;;-1.71;79.75
18201;BME280;9226;47.858;9.594;2024-01-30T06:38:17;96626.75;;;-1.68;79.45
18201;BME280;9226;47.858;9.594;2024-01-30T06:40:42;96630.09;;;-1.58;78.81
18201;BME280;9226;47.858;9.594;2024-01-30T06:43:08;96628.31;;;-1.54;78.47
18201;BME280;9226;47.858;9.594;2024-01-30T06:45:33;96633.56;;;-1.57;78.70
18201;BME280;9226;47.858;9.594;2024-01-30T06:48:00;96635.34;;;-1.59;79.17
18201;BME280;9226;47.858;9.594;2024-01-30T06:50:25;96638.69;;;-1.51;78.71
18201;BME280;9226;47.858;9.594;2024-01-30T06:52:52;96633.47;;;-1.51;78.99
18201;BME280;9226;47.858;9.594;2024-01-30T06:55:18;96636.06;;;-1.51;79.21
18201;BME280;9226;47.858;9.594;2024-01-30T06:57:43;96636.94;;;-1.52;79.52
18201;BME280;9226;47.858;9.594;2024-01-30T07:00:09;96633.41;;;-1.47;79.43
18201;BME280;9226;47.858;9.594;2024-01-30T07:02:35;96640.25;;;-1.41;79.29
18201;BME280;9226;47.858;9.594;2024-01-30T07:05:00;96634.94;;;-1.35;79.08
18201;BME280;9226;47.858;9.594;2024-01-30T07:07:26;96640.47;;;-1.55;80.87
18201;BME280;9226;47.858;9.594;2024-01-30T07:09:52;96640.13;;;-1.33;79.75
18201;BME280;9226;47.858;9.594;2024-01-30T07:12:24;96645.13;;;-1.19;79.65
18201;BME280;9226;47.858;9.594;2024-01-30T07:14:52;96642.22;;;-0.99;79.96
18201;BME280;9226;47.858;9.594;2024-01-30T07:17:18;96643.53;;;-0.75;80.56
18201;BME280;9226;47.858;9.594;2024-01-30T07:19:44;96641.03;;;-0.31;80.09
18201;BME280;9226;47.858;9.594;2024-01-30T07:22:09;96644.66;;;0.05;79.43
18201;BME280;9226;47.858;9.594;2024-01-30T07:24:34;96636.50;;;0.60;78.57
18201;BME280;9226;47.858;9.594;2024-01-30T07:27:00;96633.28;;;1.23;77.63
18201;BME280;9226;47.858;9.594;2024-01-30T07:29:25;96638.66;;;1.83;75.04
18201;BME280;9226;47.858;9.594;2024-01-30T07:31:51;96634.72;;;2.59;74.72
18201;BME280;9226;47.858;9.594;2024-01-30T07:34:17;96639.34;;;3.07;71.10
18201;BME280;9226;47.858;9.594;2024-01-30T07:36:42;96638.63;;;3.56;68.52
18201;BME280;9226;47.858;9.594;2024-01-30T07:39:07;96639.69;;;4.01;66.00
18201;BME280;9226;47.858;9.594;2024-01-30T07:41:33;96643.84;;;4.06;64.04
18201;BME280;9226;47.858;9.594;2024-01-30T07:43:59;96646.84;;;4.44;62.35
18201;BME280;9226;47.858;9.594;2024-01-30T07:46:24;96649.66;;;4.85;62.20
18201;BME280;9226;47.858;9.594;2024-01-30T07:48:49;96648.91;;;5.48;60.47
18201;BME280;9226;47.858;9.594;2024-01-30T07:51:16;96646.50;;;6.45;60.47
18201;BME280;9226;47.858;9.594;2024-01-30T07:53:41;96646.13;;;7.10;58.68
18201;BME280;9226;47.858;9.594;2024-01-30T07:56:07;96638.75;;;7.70;57.30
18201;BME280;9226;47.858;9.594;2024-01-30T07:58:32;96637.91;;;8.38;57.47
18201;BME280;9226;47.858;9.594;2024-01-30T08:00:58;96639.03;;;8.50;55.33
18201;BME280;9226;47.858;9.594;2024-01-30T08:03:24;96643.09;;;9.05;53.29
18201;BME280;9226;47.858;9.594;2024-01-30T08:05:49;96640.19;;;9.26;53.12
18201;BME280;9226;47.858;9.594;2024-01-30T08:08:14;96643.19;;;9.19;52.30
18201;BME280;9226;47.858;9.594;2024-01-30T08:10:40;96649.88;;;8.45;50.82
18201;BME280;9226;47.858;9.594;2024-01-30T08:13:05;96650.78;;;8.44;52.11
18201;BME280;9226;47.858;9.594;2024-01-30T08:15:31;96648.63;;;8.35;51.54
18201;BME280;9226;47.858;9.594;2024-01-30T08:17:57;96650.03;;;8.25;52.01
18201;BME280;9226;47.858;9.594;2024-01-30T08:20:24;96649.47;;;8.02;52.26
18201;BME280;9226;47.858;9.594;2024-01-30T08:22:50;96654.59;;;8.05;53.16
18201;BME280;9226;47.858;9.594;2024-01-30T08:25:15;96655.81;;;7.98;52.95
18201;BME280;9226;47.858;9.594;2024-01-30T08:27:41;96654.13;;;7.97;52.53
18201;BME280;9226;47.858;9.594;2024-01-30T08:30:07;96650.56;;;7.81;52.03
18201;BME280;9226;47.858;9.594;2024-01-30T08:32:32;96654.13;;;8.14;53.17
18201;BME280;9226;47.858;9.594;2024-01-30T08:34:59;96655.16;;;8.28;52.24
18201;BME280;9226;47.858;9.594;2024-01-30T08:37:29;96652.56;;;8.10;52.21
18201;BME280;9226;47.858;9.594;2024-01-30T08:39:54;96661.06;;;8.33;51.57
18201;BME280;9226;47.858;9.594;2024-01-30T08:42:20;96650.41;;;8.34;51.77
18201;BME280;9226;47.858;9.594;2024-01-30T08:44:51;96653.78;;;7.51;51.88
18201;BME280;9226;47.858;9.594;2024-01-30T08:47:18;96652.72;;;8.07;51.82
18201;BME280;9226;47.858;9.594;2024-01-30T08:49:44;96656.72;;;8.32;51.02
18201;BME280;9226;47.858;9.594;2024-01-30T08:52:12;96655.28;;;7.91;50.67
18201;BME280;9226;47.858;9.594;2024-01-30T08:54:38;96654.59;;;8.05;51.61
18201;BME280;9226;47.858;9.594;2024-01-30T08:57:03;96661.91;;;8.00;51.51
18201;BME280;9226;47.858;9.594;2024-01-30T08:59:29;96664.59;;;7.46;50.96
18201;BME280;9226;47.858;9.594;2024-01-30T09:01:54;96673.69;;;7.40;52.92
18201;BME280;9226;47.858;9.594;2024-01-30T09:04:23;96660.81;;;7.52;53.13
18201;BME280;9226;47.858;9.594;2024-01-30T09:06:48;96662.72;;;7.31;53.45
18201;BME280;9226;47.858;9.594;2024-01-30T09:09:14;96672.56;;;7.08;53.78
18201;BME280;9226;47.858;9.594;2024-01-30T09:11:40;96669.56;;;7.16;53.94
18201;BME280;9226;47.858;9.594;2024-01-30T09:14:05;96670.50;;;6.96;54.39
18201;BME280;9226;47.858;9.594;2024-01-30T09:16:31;96674.31;;;6.90;54.89
18201;BME280;9226;47.858;9.594;2024-01-30T09:18:56;96673.97;;;6.98;55.10
18201;BME280;9226;47.858;9.594;2024-01-30T09:21:21;96682.56;;;7.01;55.63
18201;BME280;9226;47.858;9.594;2024-01-30T09:23:47;96682.16;;;7.11;55.34
18201;BME280;9226;47.858;9.594;2024-01-30T09:26:12;96682.84;;;6.57;55.86
18201;BME280;9226;47.858;9.594;2024-01-30T09:28:38;96688.41;;;6.70;56.31
18201;BME280;9226;47.858;9.594;2024-01-30T09:31:03;96684.31;;;7.02;56.10
18201;BME280;9226;47.858;9.594;2024-01-30T09:33:29;96685.63;;;7.11;56.09
18201;BME280;9226;47.858;9.594;2024-01-30T09:35:54;96694.06;;;6.81;55.61
18201;BME280;9226;47.858;9.594;2024-01-30T09:38:20;96700.13;;;7.21;55.21
18201;BME280;9226;47.858;9.594;2024-01-30T09:40:49;96700.19;;;6.82;54.68
18201;BME280;9226;47.858;9.594;2024-01-30T09:43:22;96703.09;;;6.17;56.34
18201;BME280;9226;47.858;9.594;2024-01-30T09:45:48;96703.19;;;6.34;57.44
18201;BME280;9226;47.858;9.594;2024-01-30T09:48:15;96706.34;;;6.43;57.16
18201;BME280;9226;47.858;9.594;2024-01-30T09:50:41;96702.25;;;6.75;57.39
18201;BME280;9226;47.858;9.594;2024-01-30T09:53:08;96701.91;;;6.83;58.11
18201;BME280;9226;47.858;9.594;2024-01-30T09:55:35;96700.41;;;6.96;57.40
18201;BME280;9226;47.858;9.594;2024-01-30T09:58:01;96693.44;;;7.32;56.88
18201;BME280;9226;47.858;9.594;2024-01-30T10:00:26;96688.56;;;7.78;56.01
18201;BME280;9226;47.858;9.594;2024-01-30T10:02:52;96686.84;;;8.12;55.06
18201;BME280;9226;47.858;9.594;2024-01-30T10:05:18;96689.06;;;8.55;54.24
18201;BME280;9226;47.858;9.594;2024-01-30T10:07:53;96691.97;;;8.66;53.57
18201;BME280;9226;47.858;9.594;2024-01-30T10:10:22;96695.00;;;8.92;54.54
18201;BME280;9226;47.858;9.594;2024-01-30T10:12:48;96695.00;;;8.92;53.65
18201;BME280;9226;47.858;9.594;2024-01-30T10:15:14;96683.31;;;9.12;53.11
18201;BME280;9226;47.858;9.594;2024-01-30T10:17:39;96680.84;;;9.24;52.48
18201;BME280;9226;47.858;9.594;2024-01-30T10:20:05;96675.19;;;9.31;52.83
18201;BME280;9226;47.858;9.594;2024-01-30T10:22:31;96672.31;;;9.66;52.51
18201;BME280;9226;47.858;9.594;2024-01-30T10:24:56;96675.25;;;10.22;53.70
18201;BME280;9226;47.858;9.594;2024-01-30T10:27:27;96674.97;;;10.26;51.53
18201;BME280;9226;47.858;9.594;2024-01-30T10:29:54;96675.41;;;10.78;50.34
18201;BME280;9226;47.858;9.594;2024-01-30T10:32:20;96671.84;;;11.06;49.56
18201;BME280;9226;47.858;9.594;2024-01-30T10:34:46;96669.06;;;11.22;49.82
18201;BME280;9226;47.858;9.594;2024-01-30T10:37:12;96664.03;;;11.17;49.45
18201;BME280;9226;47.858;9.594;2024-01-30T10:39:41;96665.41;;;11.10;48.78
18201;BME280;9226;47.858;9.594;2024-01-30T10:42:14;96661.16;;;10.93;48.79
18201;BME280;9226;47.858;9.594;2024-01-30T10:44:54;96665.94;;;10.74;49.32
18201;BME280;9226;47.858;9.594;2024-01-30T10:47:27;96658.06;;;10.13;50.62
18201;BME280;9226;47.858;9.594;2024-01-30T10:49:54;96658.63;;;10.18;50.93
18201;BME280;9226;47.858;9.594;2024-01-30T10:52:20;96656.31;;;9.98;52.61
18201;BME280;9226;47.858;9.594;2024-01-30T10:54:46;96657.84;;;10.46;52.20
18201;BME280;9226;47.858;9.594;2024-01-30T10:57:12;96662.31;;;10.60;52.06
18201;BME280;9226;47.858;9.594;2024-01-30T10:59:40;96653.88;;;10.54;50.70
18201;BME280;9226;47.858;9.594;2024-01-30T11:02:06;96657.25;;;10.99;50.71
18201;BME280;9226;47.858;9.594;2024-01-30T11:04:38;96652.72;;;11.01;50.33
18201;BME280;9226;47.858;9.594;2024-01-30T11:07:23;96654.31;;;11.03;49.73
18201;BME280;9226;47.858;9.594;2024-01-30T11:12:27;96649.22;;;10.57;51.31
18201;BME280;9226;47.858;9.594;2024-01-30T11:15:03;96658.13;;;10.56;51.07
18201;BME280;9226;47.858;9.594;2024-01-30T11:20:30;96643.09;;;10.57;51.20
18201;BME280;9226;47.858;9.594;2024-01-30T11:22:57;96651.31;;;10.52;51.75
18201;BME280;9226;47.858;9.594;2024-01-30T11:25:23;96649.94;;;10.16;51.70
18201;BME280;9226;47.858;9.594;2024-01-30T11:27:51;96647.00;;;10.21;52.06
18201;BME280;9226;47.858;9.594;2024-01-30T11:30:27;96648.69;;;9.77;52.46
18201;BME280;9226;47.858;9.594;2024-01-30T11:35:41;96638.41;;;9.56;53.50
18201;BME280;9226;47.858;9.594;2024-01-30T11:38:16;96634.31;;;9.20;54.42
18201;BME280;9226;47.858;9.594;2024-01-30T11:40:41;96634.91;;;8.62;55.88
18201;BME280;9226;47.858;9.594;2024-01-30T11:43:07;96633.03;;;8.80;55.61
18201;BME280;9226;47.858;9.594;2024-01-30T11:45:34;96625.75;;;8.51;56.73
18201;BME280;9226;47.858;9.594;2024-01-30T11:48:00;96629.22;;;8.52;56.80
18201;BME280;9226;47.858;9.594;2024-01-30T11:50:29;96623.91;;;8.19;57.98
18201;BME280;9226;47.858;9.594;2024-01-30T11:52:55;96612.41;;;8.20;58.46
18201;BME280;9226;47.858;9.594;2024-01-30T11:55:20;96618.22;;;7.93;59.65
18201;BME280;9226;47.858;9.594;2024-01-30T11:57:46;96619.06;;;7.93;60.06
18201;BME280;9226;47.858;9.594;2024-01-30T12:00:15;96612.63;;;7.82;60.36
18201;BME280;9226;47.858;9.594;2024-01-30T12:02:42;96609.13;;;7.81;60.69
18201;BME280;9226;47.858;9.594;2024-01-30T12:05:08;96605.53;;;8.00;60.21
18201;BME280;9226;47.858;9.594;2024-01-30T12:07:34;96607.28;;;7.83;60.91
18201;BME280;9226;47.858;9.594;2024-01-30T12:10:00;96602.00;;;7.83;61.22
18201;BME280;9226;47.858;9.594;2024-01-30T12:12:26;96605.19;;;7.72;62.13
18201;BME280;9226;47.858;9.594;2024-01-30T12:14:52;96611.44;;;8.05;61.01
18201;BME280;9226;47.858;9.594;2024-01-30T12:17:32;96598.63;;;7.97;61.97
18201;BME280;9226;47.858;9.594;2024-01-30T12:22:37;96596.41;;;7.72;63.47
18201;BME280;9226;47.858;9.594;2024-01-30T12:25:08;96591.66;;;7.61;63.78
18201;BME280;9226;47.858;9.594;2024-01-30T12:27:34;96592.44;;;7.63;64.39
18201;BME280;9226;47.858;9.594;2024-01-30T12:29:59;96593.63;;;7.75;64.47
18201;BME280;9226;47.858;9.594;2024-01-30T12:32:25;96588.19;;;7.78;64.83
18201;BME280;9226;47.858;9.594;2024-01-30T12:34:50;96593.34;;;7.62;66.14
18201;BME280;9226;47.858;9.594;2024-01-30T12:37:20;96585.94;;;7.53;66.92
18201;BME280;9226;47.858;9.594;2024-01-30T12:39:48;96575.03;;;7.41;67.58
18201;BME280;9226;47.858;9.594;2024-01-30T12:42:14;96575.59;;;7.31;68.57
18201;BME280;9226;47.858;9.594;2024-01-30T12:44:40;96577.38;;;7.30;68.19
18201;BME280;9226;47.858;9.594;2024-01-30T12:47:08;96581.84;;;7.11;68.80
18201;BME280;9226;47.858;9.594;2024-01-30T12:49:34;96582.81;;;6.91;69.50
18201;BME280;9226;47.858;9.594;2024-01-30T12:51:59;96582.66;;;7.30;68.75
18201;BME280;9226;47.858;9.594;2024-01-30T12:54:25;96587.38;;;7.23;68.76
18201;BME280;9226;47.858;9.594;2024-01-30T12:56:50;96577.66;;;7.41;68.40
18201;BME280;9226;47.858;9.594;2024-01-30T12:59:16;96584.81;;;7.22;69.37
18201;BME280;9226;47.858;9.594;2024-01-30T13:01:41;96579.50;;;7.04;70.05
18201;BME280;9226;47.858;9.594;2024-01-30T13:04:07;96577.97;;;7.18;69.87
18201;BME280;9226;47.858;9.594;2024-01-30T13:06:33;96574.34;;;7.38;69.54
18201;BME280;9226;47.858;9.594;2024-01-30T13:08:58;96583.81;;;7.59;68.54
18201;BME280;9226;47.858;9.594;2024-01-30T13:11:23;96577.13;;;7.52;69.08
18201;BME280;9226;47.858;9.594;2024-01-30T13:13:51;96583.91;;;7.58;68.84
18201;BME280;9226;47.858;9.594;2024-01-30T13:16:16;96572.00;;;7.49;69.69
18201;BME280;9226;47.858;9.594;2024-01-30T13:18:41;96586.38;;;7.61;69.71
18201;BME280;9226;47.858;9.594;2024-01-30T13:21:07;96577.66;;;7.59;69.59